createdAt,value
2023-03-22T00:01:44.296Z,9.70
2023-03-22T00:04:12.426Z,9.70
2023-03-22T00:06:40.439Z,9.80
2023-03-22T00:09:08.293Z,9.60
2023-03-22T00:11:36.298Z,9.50
2023-03-22T00:14:04.144Z,9.40
2023-03-22T00:16:32.064Z,9.40
2023-03-22T00:18:59.902Z,9.40
2023-03-22T00:21:27.821Z,9.40
2023-03-22T00:23:55.722Z,9.40
2023-03-22T00:26:23.639Z,9.40
2023-03-22T00:28:51.710Z,9.20
2023-03-22T00:31:21.035Z,9.20
2023-03-22T00:33:48.951Z,9.10
2023-03-22T00:36:16.732Z,9.10
2023-03-22T00:38:45.310Z,9.20
2023-03-22T00:41:14.546Z,9.20
2023-03-22T00:43:42.795Z,9.10
2023-03-22T00:46:11.422Z,9.10
2023-03-22T00:48:39.523Z,9.00
2023-03-22T00:51:07.749Z,8.90
2023-03-22T00:53:39.327Z,8.90
2023-03-22T00:56:08.696Z,9.00
2023-03-22T00:58:44.548Z,8.90
2023-03-22T01:01:15.185Z,8.70
2023-03-22T01:03:44.019Z,8.60
2023-03-22T01:06:15.480Z,8.50
2023-03-22T01:08:43.511Z,8.40
2023-03-22T01:11:11.371Z,8.30
2023-03-22T01:13:39.448Z,8.30
2023-03-22T01:16:07.881Z,8.30
2023-03-22T01:18:36.675Z,8.30
2023-03-22T01:21:04.594Z,8.30
2023-03-22T01:23:33.012Z,8.30
2023-03-22T01:26:01.258Z,8.30
2023-03-22T01:28:29.757Z,8.30
2023-03-22T01:30:58.058Z,8.20
2023-03-22T01:33:25.938Z,8.20
2023-03-22T01:35:54.063Z,8.10
2023-03-22T01:38:25.854Z,8.20
2023-03-22T01:41:00.758Z,8.20
2023-03-22T01:43:31.968Z,8.10
2023-03-22T01:46:00.386Z,8.10
2023-03-22T01:48:30.570Z,8.10
2023-03-22T01:51:04.271Z,8.10
2023-03-22T01:53:40.435Z,8.20
2023-03-22T01:56:08.855Z,8.10
2023-03-22T01:58:38.192Z,8.10
2023-03-22T02:01:09.160Z,8.00
2023-03-22T02:04:00.001Z,7.90
2023-03-22T02:06:31.011Z,7.90
2023-03-22T02:09:10.255Z,7.90
2023-03-22T02:11:42.844Z,8.10
2023-03-22T02:14:43.272Z,8.10
2023-03-22T02:18:07.476Z,8.20
2023-03-22T02:20:35.330Z,8.20
2023-03-22T02:23:23.379Z,8.30
2023-03-22T02:26:05.008Z,8.30
2023-03-22T02:28:35.675Z,8.30
2023-03-22T02:31:09.776Z,8.30
2023-03-22T02:33:57.932Z,8.20
2023-03-22T02:36:32.013Z,8.20
2023-03-22T02:39:15.078Z,8.20
2023-03-22T02:41:46.168Z,8.30
2023-03-22T02:44:26.673Z,8.40
2023-03-22T02:47:01.334Z,8.30
2023-03-22T02:49:40.770Z,8.30
2023-03-22T02:52:08.612Z,8.30
2023-03-22T02:54:44.600Z,8.20
2023-03-22T02:57:15.664Z,8.10
2023-03-22T02:59:43.843Z,8.10
2023-03-22T03:02:13.496Z,8.10
2023-03-22T03:04:45.657Z,8.20
2023-03-22T03:07:15.436Z,8.10
2023-03-22T03:09:44.026Z,8.20
2023-03-22T03:12:19.740Z,8.10
2023-03-22T03:14:47.703Z,8.10
2023-03-22T03:17:21.718Z,8.00
2023-03-22T03:19:59.427Z,7.90
2023-03-22T03:22:27.410Z,7.70
2023-03-22T03:25:00.660Z,7.50
2023-03-22T03:27:50.917Z,7.40
2023-03-22T03:30:29.420Z,7.20
2023-03-22T03:33:10.481Z,7.20
2023-03-22T03:35:44.682Z,7.30
2023-03-22T03:38:19.711Z,7.20
2023-03-22T03:40:52.946Z,7.00
2023-03-22T03:43:29.588Z,6.90
2023-03-22T03:45:58.510Z,7.00
2023-03-22T03:48:29.093Z,7.00
2023-03-22T03:50:57.888Z,6.90
2023-03-22T03:53:25.701Z,6.90
2023-03-22T03:55:53.864Z,6.80
2023-03-22T03:58:21.851Z,6.90
2023-03-22T04:00:50.640Z,6.90
2023-03-22T04:03:37.518Z,6.90
2023-03-22T04:06:41.239Z,6.80
2023-03-22T04:09:15.099Z,6.80
2023-03-22T04:11:47.138Z,6.80
2023-03-22T04:14:16.468Z,6.80
2023-03-22T04:16:48.040Z,6.80
2023-03-22T04:19:20.062Z,6.80
2023-03-22T04:21:48.108Z,6.80
2023-03-22T04:24:16.518Z,6.90
2023-03-22T04:26:47.237Z,7.00
2023-03-22T04:29:24.046Z,7.00
2023-03-22T04:31:57.560Z,7.00
2023-03-22T04:34:30.736Z,6.90
2023-03-22T04:37:03.654Z,6.80
2023-03-22T04:39:33.604Z,6.90
2023-03-22T04:42:31.282Z,6.90
2023-03-22T04:45:07.559Z,6.80
2023-03-22T04:47:36.396Z,6.70
2023-03-22T04:50:08.333Z,6.70
2023-03-22T04:52:43.803Z,6.60
2023-03-22T04:55:12.318Z,6.60
2023-03-22T04:57:40.374Z,6.50
2023-03-22T05:00:09.929Z,6.60
2023-03-22T05:02:41.817Z,6.60
2023-03-22T05:05:18.213Z,6.60
2023-03-22T05:07:47.985Z,6.70
2023-03-22T05:10:15.962Z,6.80
2023-03-22T05:12:44.258Z,6.80
2023-03-22T05:15:23.366Z,6.70
2023-03-22T05:17:52.814Z,6.70
2023-03-22T05:20:23.989Z,6.70
2023-03-22T05:23:05.588Z,6.70
2023-03-22T05:25:33.798Z,6.50
2023-03-22T05:28:04.820Z,6.40
2023-03-22T05:30:48.699Z,6.30
2023-03-22T05:33:28.926Z,6.30
2023-03-22T05:35:58.629Z,6.40
2023-03-22T05:41:10.268Z,6.60
2023-03-22T05:43:38.612Z,6.70
2023-03-22T05:46:07.939Z,6.80
2023-03-22T05:48:49.980Z,6.80
2023-03-22T05:51:19.273Z,6.70
2023-03-22T05:53:50.675Z,6.70
2023-03-22T05:56:30.584Z,6.80
2023-03-22T05:59:06.006Z,6.90
2023-03-22T06:01:34.569Z,7.00
2023-03-22T06:04:13.064Z,7.10
2023-03-22T06:06:55.033Z,7.20
2023-03-22T06:09:41.567Z,7.30
2023-03-22T06:12:13.704Z,7.40
2023-03-22T06:14:42.624Z,7.50
2023-03-22T06:17:51.223Z,7.70
2023-03-22T06:20:23.750Z,7.90
2023-03-22T06:22:58.682Z,8.10
2023-03-22T06:25:26.618Z,8.40
2023-03-22T06:27:55.966Z,8.90
2023-03-22T06:30:24.942Z,9.30
2023-03-22T06:33:09.594Z,9.70
2023-03-22T06:35:40.456Z,9.90
2023-03-22T06:38:10.801Z,10.10
2023-03-22T06:40:39.983Z,10.30
2023-03-22T06:43:08.075Z,10.70
2023-03-22T06:45:39.229Z,11.10
2023-03-22T06:48:08.270Z,11.50
2023-03-22T06:51:04.307Z,11.90
2023-03-22T06:53:35.194Z,12.30
2023-03-22T06:56:04.611Z,12.70
2023-03-22T06:58:42.114Z,12.90
2023-03-22T07:01:10.122Z,13.10
2023-03-22T07:03:38.743Z,13.30
2023-03-22T07:06:14.629Z,13.50
2023-03-22T07:08:48.175Z,13.90
2023-03-22T07:11:21.091Z,14.10
2023-03-22T07:13:56.903Z,14.50
2023-03-22T07:16:25.023Z,14.90
2023-03-22T07:18:59.428Z,15.20
2023-03-22T07:21:27.803Z,15.50
2023-03-22T07:24:00.011Z,15.80
2023-03-22T07:26:31.872Z,16.00
2023-03-22T07:29:01.344Z,16.20
2023-03-22T07:31:32.719Z,16.30
2023-03-22T07:34:03.669Z,16.50
2023-03-22T07:36:39.274Z,16.80
2023-03-22T07:39:10.595Z,17.00
2023-03-22T07:41:43.413Z,17.20
2023-03-22T07:44:26.292Z,17.50
2023-03-22T07:47:39.881Z,17.80
2023-03-22T07:50:28.358Z,18.20
2023-03-22T07:52:59.795Z,18.50
2023-03-22T07:55:27.804Z,18.60
2023-03-22T07:57:56.126Z,18.20
2023-03-22T08:00:24.218Z,18.50
2023-03-22T08:03:14.819Z,19.30
2023-03-22T08:06:04.872Z,19.60
2023-03-22T08:08:33.494Z,19.60
2023-03-22T08:11:01.476Z,19.80
2023-03-22T08:13:29.375Z,20.40
2023-03-22T08:15:57.578Z,20.30
2023-03-22T08:18:25.748Z,19.70
2023-03-22T08:20:57.651Z,20.20
2023-03-22T08:23:40.825Z,21.10
2023-03-22T08:26:28.481Z,21.80
2023-03-22T08:29:00.840Z,21.90
2023-03-22T08:31:31.727Z,21.50
2023-03-22T08:34:00.442Z,21.60
2023-03-22T08:36:31.318Z,21.30
2023-03-22T08:39:04.543Z,20.40
2023-03-22T08:41:55.756Z,20.20
2023-03-22T08:44:26.112Z,20.50
2023-03-22T08:46:54.761Z,20.70
2023-03-22T08:49:22.729Z,21.10
2023-03-22T08:52:01.671Z,21.70
2023-03-22T08:54:43.548Z,21.20
2023-03-22T08:57:34.245Z,20.70
2023-03-22T09:00:20.942Z,20.50
2023-03-22T09:03:15.241Z,20.80
2023-03-22T09:05:43.738Z,21.20
2023-03-22T09:08:19.205Z,21.20
2023-03-22T09:10:52.623Z,21.50
2023-03-22T09:13:22.871Z,21.60
2023-03-22T09:15:56.046Z,22.60
2023-03-22T09:18:27.312Z,22.80
2023-03-22T09:20:59.133Z,23.60
2023-03-22T09:23:33.374Z,23.40
2023-03-22T09:26:03.269Z,24.30
2023-03-22T09:28:32.896Z,22.90
2023-03-22T09:31:05.870Z,21.80
2023-03-22T09:33:34.506Z,21.20
2023-03-22T09:36:03.118Z,20.60
2023-03-22T09:38:36.836Z,20.70
2023-03-22T09:41:09.787Z,20.30
2023-03-22T09:43:47.797Z,20.70
2023-03-22T09:46:18.784Z,21.40
2023-03-22T09:48:49.377Z,21.80
2023-03-22T09:51:24.251Z,22.20
2023-03-22T09:53:52.162Z,22.10
2023-03-22T09:56:25.062Z,21.60
2023-03-22T09:59:01.999Z,21.00
2023-03-22T10:01:36.214Z,20.80
2023-03-22T10:04:13.551Z,20.20
2023-03-22T10:06:44.895Z,20.30
2023-03-22T10:09:48.173Z,20.60
2023-03-22T10:12:24.640Z,20.50
2023-03-22T10:14:58.766Z,19.40
2023-03-22T10:17:27.703Z,18.60
2023-03-22T10:20:02.210Z,18.50
2023-03-22T10:22:35.447Z,19.00
2023-03-22T10:25:03.512Z,19.20
2023-03-22T10:27:32.656Z,18.90
2023-03-22T10:30:30.071Z,19.10
2023-03-22T10:33:25.074Z,19.40
2023-03-22T10:35:53.694Z,19.60
2023-03-22T10:38:25.821Z,20.20
2023-03-22T10:40:55.106Z,20.00
2023-03-22T10:43:28.777Z,20.50
2023-03-22T10:45:58.427Z,20.10
2023-03-22T10:48:44.603Z,19.90
2023-03-22T10:51:17.135Z,19.80
2023-03-22T10:53:47.774Z,20.10
2023-03-22T10:56:16.890Z,20.40
2023-03-22T10:58:44.766Z,21.10
2023-03-22T11:01:14.087Z,20.90
2023-03-22T11:03:52.064Z,20.70
2023-03-22T11:06:23.878Z,21.10
2023-03-22T11:08:55.662Z,21.10
2023-03-22T11:11:35.862Z,20.80
2023-03-22T11:14:08.885Z,20.50
2023-03-22T11:16:49.234Z,20.20
2023-03-22T11:19:23.609Z,20.00
2023-03-22T11:21:52.806Z,20.20
2023-03-22T11:24:22.706Z,20.80
2023-03-22T11:27:04.418Z,21.10
2023-03-22T11:29:40.645Z,21.50
2023-03-22T11:32:28.338Z,21.20
2023-03-22T11:35:03.111Z,20.90
2023-03-22T11:37:31.090Z,20.70
2023-03-22T11:40:03.145Z,21.20
2023-03-22T11:42:31.075Z,21.30
2023-03-22T11:44:58.868Z,21.50
2023-03-22T11:47:27.604Z,21.40
2023-03-22T11:49:58.195Z,21.40
2023-03-22T11:52:28.014Z,21.60
2023-03-22T11:54:57.066Z,21.50
2023-03-22T11:57:27.165Z,21.30
2023-03-22T11:59:57.975Z,21.10
2023-03-22T12:02:42.067Z,21.60
2023-03-22T12:05:15.970Z,21.50
2023-03-22T12:07:44.248Z,21.10
2023-03-22T12:10:15.555Z,21.10
2023-03-22T12:12:47.541Z,21.00
2023-03-22T12:15:23.309Z,20.60
2023-03-22T12:18:06.011Z,20.40
2023-03-22T12:20:44.389Z,20.00
2023-03-22T12:23:20.134Z,20.10
2023-03-22T12:26:00.289Z,20.40
2023-03-22T12:28:44.371Z,20.30
2023-03-22T12:31:22.358Z,20.60
2023-03-22T12:33:53.660Z,21.20
2023-03-22T12:36:35.580Z,21.70
2023-03-22T12:39:04.265Z,22.00
2023-03-22T12:41:36.876Z,22.30
2023-03-22T12:44:10.632Z,21.70
2023-03-22T12:46:59.242Z,21.40
2023-03-22T12:49:29.990Z,21.40
2023-03-22T12:52:02.390Z,21.40
2023-03-22T12:54:30.323Z,21.50
2023-03-22T12:56:58.306Z,21.30
2023-03-22T12:59:29.562Z,21.10
2023-03-22T13:02:09.283Z,21.20
2023-03-22T13:04:37.169Z,21.40
2023-03-22T13:07:31.656Z,21.00
2023-03-22T13:10:02.668Z,20.80
2023-03-22T13:12:32.919Z,20.30
2023-03-22T13:15:23.828Z,20.20
2023-03-22T13:17:57.459Z,20.20
2023-03-22T13:20:28.922Z,20.00
2023-03-22T13:23:01.004Z,19.70
2023-03-22T13:25:35.473Z,19.90
2023-03-22T13:28:05.056Z,20.10
2023-03-22T13:30:50.155Z,20.20
2023-03-22T13:33:21.231Z,20.40
2023-03-22T13:35:57.988Z,20.80
2023-03-22T13:38:30.366Z,20.90
2023-03-22T13:41:04.164Z,20.70
2023-03-22T13:43:54.990Z,20.90
2023-03-22T13:46:23.105Z,21.00
2023-03-22T13:48:53.022Z,20.80
2023-03-22T13:51:24.015Z,20.70
2023-03-22T13:54:01.599Z,20.90
2023-03-22T13:56:32.943Z,21.30
2023-03-22T13:59:01.352Z,21.40
2023-03-22T14:01:32.200Z,21.10
2023-03-22T14:04:02.298Z,21.20
2023-03-22T14:06:32.916Z,20.90
2023-03-22T14:09:10.444Z,21.10
2023-03-22T14:11:43.824Z,20.90
2023-03-22T14:14:16.156Z,20.80
2023-03-22T14:16:51.209Z,20.80
2023-03-22T14:19:24.529Z,20.80
2023-03-22T14:54:23.478Z,20.20
2023-03-22T14:56:51.619Z,20.10
2023-03-22T14:59:24.606Z,20.20
2023-03-22T15:01:57.960Z,20.30
2023-03-22T15:04:26.462Z,20.10
2023-03-22T15:06:58.769Z,20.20
2023-03-22T15:09:33.923Z,20.40
2023-03-22T15:12:06.390Z,20.40
2023-03-22T15:14:39.326Z,20.20
2023-03-22T15:17:08.765Z,19.90
2023-03-22T15:19:39.738Z,19.60
2023-03-22T15:22:17.485Z,19.40
2023-03-22T15:24:52.296Z,19.30
2023-03-22T15:27:21.813Z,19.10
2023-03-22T15:29:50.716Z,19.00
2023-03-22T15:32:21.054Z,19.10
2023-03-22T15:34:50.452Z,19.00
2023-03-22T15:37:21.282Z,18.80
2023-03-22T15:39:49.504Z,18.80
2023-03-22T15:42:24.915Z,18.60
2023-03-22T15:45:06.020Z,18.60
2023-03-22T15:47:47.837Z,18.50
2023-03-22T15:50:18.497Z,18.30
2023-03-22T15:52:54.234Z,18.20
2023-03-22T15:55:28.084Z,18.10
2023-03-22T15:58:09.633Z,18.10
2023-03-22T16:00:40.977Z,18.20
2023-03-22T16:03:10.671Z,18.40
2023-03-22T16:05:46.410Z,18.60
2023-03-22T16:08:17.869Z,18.50
2023-03-22T16:10:50.281Z,18.40
2023-03-22T16:13:22.269Z,18.20
2023-03-22T16:15:50.648Z,18.20
2023-03-22T16:18:25.059Z,18.30
2023-03-22T16:20:54.681Z,18.20
2023-03-22T16:23:23.576Z,18.10
2023-03-22T16:25:51.901Z,18.10
2023-03-22T16:28:19.972Z,18.10
2023-03-22T16:30:48.627Z,18.00
2023-03-22T16:33:18.325Z,18.00
2023-03-22T16:35:47.150Z,17.90
2023-03-22T16:38:15.737Z,17.70
2023-03-22T16:40:53.680Z,17.60
2023-03-22T16:43:21.849Z,17.60
2023-03-22T16:45:50.349Z,17.50
2023-03-22T16:48:19.564Z,17.40
2023-03-22T16:50:49.633Z,17.40
2023-03-22T16:53:19.032Z,17.30
2023-03-22T16:55:51.349Z,17.20
2023-03-22T16:58:23.539Z,17.10
2023-03-22T17:00:54.285Z,16.90
2023-03-22T17:03:26.254Z,16.80
2023-03-22T17:05:54.375Z,16.80
2023-03-22T17:08:27.275Z,16.60
2023-03-22T17:10:55.336Z,16.50
2023-03-22T17:13:23.338Z,16.20
2023-03-22T17:15:51.724Z,16.00
2023-03-22T17:18:19.780Z,15.80
2023-03-22T17:20:48.625Z,15.50
2023-03-22T17:23:16.990Z,15.30
2023-03-22T17:25:48.783Z,15.10
2023-03-22T17:28:16.959Z,14.90
2023-03-22T17:30:45.036Z,14.70
2023-03-22T17:33:14.812Z,14.60
2023-03-22T17:35:43.736Z,14.60
2023-03-22T17:38:15.004Z,14.60
2023-03-22T17:43:16.797Z,14.20
2023-03-22T17:48:19.560Z,14.00
2023-03-22T17:50:55.366Z,13.90
2023-03-22T17:54:09.472Z,13.90
2023-03-22T17:58:42.769Z,13.70
2023-03-22T18:01:14.855Z,13.60
2023-03-22T18:03:43.087Z,13.50
2023-03-22T18:06:11.157Z,13.40
2023-03-22T18:08:39.174Z,13.20
2023-03-22T18:11:07.356Z,13.10
2023-03-22T18:13:36.615Z,13.00
2023-03-22T18:16:09.883Z,12.90
2023-03-22T18:18:38.243Z,12.70
2023-03-22T18:21:10.414Z,12.70
2023-03-22T18:23:38.506Z,12.60
2023-03-22T18:26:16.747Z,12.50
2023-03-22T18:28:53.635Z,12.40
2023-03-22T18:31:22.155Z,12.30
2023-03-22T18:33:50.963Z,12.20
2023-03-22T18:36:18.991Z,12.00
2023-03-22T18:39:30.858Z,11.90
2023-03-22T18:41:45.814Z,11.80
2023-03-22T18:44:18.876Z,11.60
2023-03-22T18:46:47.076Z,11.60
2023-03-22T18:49:15.353Z,11.50
2023-03-22T18:52:19.087Z,11.50
2023-03-22T18:54:32.852Z,11.50
2023-03-22T18:57:01.674Z,11.60
2023-03-22T18:59:32.200Z,11.50
2023-03-22T19:02:09.912Z,11.50
2023-03-22T19:04:45.309Z,11.40
2023-03-22T19:07:20.243Z,11.40
2023-03-22T19:09:59.602Z,11.40
2023-03-22T19:12:28.659Z,11.40
2023-03-22T19:15:28.140Z,11.50
2023-03-22T19:17:45.013Z,11.40
2023-03-22T19:20:13.258Z,11.50
2023-03-22T19:22:41.692Z,11.50
2023-03-22T19:25:10.038Z,11.50
2023-03-22T19:27:38.455Z,11.50
2023-03-22T19:30:07.177Z,11.50
2023-03-22T19:32:36.047Z,11.60
2023-03-22T19:35:04.234Z,11.70
2023-03-22T19:37:32.239Z,11.50
2023-03-22T19:42:49.740Z,11.30
2023-03-22T19:45:18.047Z,11.30
2023-03-22T19:47:58.215Z,11.30
2023-03-22T19:50:32.008Z,11.40
2023-03-22T19:53:14.394Z,11.40
2023-03-22T19:55:48.341Z,11.20
2023-03-22T19:58:16.385Z,11.10
2023-03-22T20:00:45.793Z,11.00
2023-03-22T20:03:14.373Z,10.90
2023-03-22T20:05:49.478Z,10.80
2023-03-22T20:08:18.771Z,10.70
2023-03-22T20:10:49.902Z,10.50
2023-03-22T20:13:19.858Z,10.50
2023-03-22T20:15:47.920Z,10.40
2023-03-22T20:18:16.154Z,10.40
2023-03-22T20:20:50.201Z,10.50
2023-03-22T20:23:18.278Z,10.50
2023-03-22T20:25:57.455Z,10.40
2023-03-22T20:28:25.884Z,10.30
2023-03-22T20:30:53.939Z,10.30
2023-03-22T20:33:22.225Z,10.20
2023-03-22T20:35:50.437Z,10.10
2023-03-22T20:38:18.716Z,10.10
2023-03-22T20:40:47.481Z,10.00
2023-03-22T20:43:15.537Z,10.00
2023-03-22T20:45:43.639Z,10.00
2023-03-22T20:48:11.795Z,10.00
2023-03-22T20:50:39.973Z,9.90
2023-03-22T20:53:08.075Z,10.00
2023-03-22T20:55:36.188Z,10.10
2023-03-22T20:58:04.844Z,10.10
2023-03-22T21:00:33.627Z,10.00
2023-03-22T21:03:01.719Z,10.00
2023-03-22T21:05:29.732Z,10.10
2023-03-22T21:07:58.225Z,10.20
2023-03-22T21:10:26.274Z,10.30
2023-03-22T21:12:54.268Z,10.30
2023-03-22T21:15:22.632Z,10.20
2023-03-22T21:17:50.691Z,10.00
2023-03-22T21:20:27.127Z,10.00
2023-03-22T21:23:00.584Z,9.90
2023-03-22T21:25:28.661Z,9.90
2023-03-22T21:28:03.651Z,9.90
2023-03-22T21:30:35.343Z,10.00
2023-03-22T21:33:03.524Z,10.10
2023-03-22T21:35:31.629Z,10.20
2023-03-22T21:37:59.810Z,10.30
2023-03-22T21:40:27.963Z,10.30
2023-03-22T21:42:59.623Z,10.30
2023-03-22T21:45:35.711Z,10.30
2023-03-22T21:48:04.091Z,10.30
2023-03-22T21:50:32.208Z,10.30
2023-03-22T21:53:00.397Z,10.30
2023-03-22T21:55:33.602Z,10.20
2023-03-22T21:58:01.842Z,10.10
2023-03-22T22:00:30.921Z,10.10
2023-03-22T22:03:02.049Z,10.00
2023-03-22T22:05:30.213Z,10.10
2023-03-22T22:07:58.292Z,10.20
2023-03-22T22:10:26.790Z,10.20
2023-03-22T22:12:56.634Z,10.30
2023-03-22T22:15:25.379Z,10.20
2023-03-22T22:17:54.146Z,10.10
2023-03-22T22:20:23.943Z,10.10
2023-03-22T22:22:52.121Z,10.00
2023-03-22T22:25:21.026Z,9.90
2023-03-22T22:27:49.563Z,10.00
2023-03-22T22:30:18.541Z,10.10
2023-03-22T22:32:50.768Z,10.20
2023-03-22T22:35:18.813Z,10.30
2023-03-22T22:37:48.089Z,10.30
2023-03-22T22:40:19.256Z,10.30
2023-03-22T22:42:47.342Z,10.20
2023-03-22T22:45:15.369Z,10.10
2023-03-22T22:47:43.518Z,10.10
2023-03-22T22:50:11.815Z,10.00
2023-03-22T22:52:40.638Z,9.90
2023-03-22T22:55:10.159Z,9.90
2023-03-22T22:57:38.897Z,9.90
2023-03-22T23:00:11.164Z,9.90
2023-03-22T23:02:39.460Z,10.00
2023-03-22T23:05:08.021Z,10.10
2023-03-22T23:07:36.127Z,10.20
2023-03-22T23:10:05.136Z,10.30
2023-03-22T23:12:33.364Z,10.30
2023-03-22T23:15:01.445Z,10.40
2023-03-22T23:17:31.358Z,10.40
2023-03-22T23:20:03.327Z,10.40
2023-03-22T23:22:31.737Z,10.40
2023-03-22T23:25:01.576Z,10.50
2023-03-22T23:27:33.700Z,10.50
2023-03-22T23:30:02.315Z,10.40
2023-03-22T23:32:30.574Z,10.50
2023-03-22T23:34:59.137Z,10.50
2023-03-22T23:37:28.512Z,10.60
2023-03-22T23:39:56.940Z,10.60
2023-03-22T23:42:24.966Z,10.60
2023-03-22T23:44:56.586Z,10.60
2023-03-22T23:47:24.630Z,10.60
2023-03-22T23:49:52.643Z,10.60
2023-03-22T23:52:20.747Z,10.40
2023-03-22T23:54:48.774Z,10.30
2023-03-22T23:57:23.510Z,10.30
2023-03-22T23:59:56.296Z,10.30
